sensor_id;sensor_type;location;lat;lon;timestamp;temperature;humidity
47540;DHT22;33280;52.152;21.052;2023-03-01T00:01:17;-1.80;99.90
47540;DHT22;33280;52.152;21.052;2023-03-01T00:03:44;-1.90;99.90
47540;DHT22;33280;52.152;21.052;2023-03-01T00:06:12;-2.00;99.90
47540;DHT22;33280;52.152;21.052;2023-03-01T00:08:39;-1.80;99.90
47540;DHT22;33280;52.152;21.052;2023-03-01T00:11:14;-2.00;99.90
47540;DHT22;33280;52.152;21.052;2023-03-01T00:13:42;-1.90;99.90
47540;DHT22;33280;52.152;21.052;2023-03-01T00:16:31;-1.90;99.90
47540;DHT22;33280;52.152;21.052;2023-03-01T00:19:00;-1.90;99.90
47540;DHT22;33280;52.152;21.052;2023-03-01T00:21:27;-2.00;99.90
47540;DHT22;33280;52.152;21.052;2023-03-01T00:23:55;-2.00;99.90
47540;DHT22;33280;52.152;21.052;2023-03-01T00:26:23;-1.90;99.90
47540;DHT22;33280;52.152;21.052;2023-03-01T00:28:51;-1.90;99.90
47540;DHT22;33280;52.152;21.052;2023-03-01T00:31:20;-2.00;99.90
47540;DHT22;33280;52.152;21.052;2023-03-01T00:33:48;-2.00;99.90
47540;DHT22;33280;52.152;21.052;2023-03-01T00:36:19;-2.00;99.90
47540;DHT22;33280;52.152;21.052;2023-03-01T00:38:46;-1.90;99.90
47540;DHT22;33280;52.152;21.052;2023-03-01T00:41:15;-2.00;99.90
47540;DHT22;33280;52.152;21.052;2023-03-01T00:43:43;-2.00;99.90
47540;DHT22;33280;52.152;21.052;2023-03-01T00:46:13;-2.00;99.90
47540;DHT22;33280;52.152;21.052;2023-03-01T00:48:40;-2.00;99.90
47540;DHT22;33280;52.152;21.052;2023-03-01T00:51:13;-2.10;99.90
47540;DHT22;33280;52.152;21.052;2023-03-01T00:53:40;-2.10;99.90
47540;DHT22;33280;52.152;21.052;2023-03-01T00:56:09;-2.00;99.90
47540;DHT22;33280;52.152;21.052;2023-03-01T00:58:36;-2.00;99.90
47540;DHT22;33280;52.152;21.052;2023-03-01T01:01:12;-2.00;99.90
47540;DHT22;33280;52.152;21.052;2023-03-01T01:03:50;-2.10;99.90
47540;DHT22;33280;52.152;21.052;2023-03-01T01:06:23;-2.10;99.90
47540;DHT22;33280;52.152;21.052;2023-03-01T01:08:51;-2.10;99.90
47540;DHT22;33280;52.152;21.052;2023-03-01T01:11:19;-2.10;99.90
47540;DHT22;33280;52.152;21.052;2023-03-01T01:13:47;-1.90;99.90
47540;DHT22;33280;52.152;21.052;2023-03-01T01:16:15;-1.90;99.90
47540;DHT22;33280;52.152;21.052;2023-03-01T01:18:43;-2.00;99.90
47540;DHT22;33280;52.152;21.052;2023-03-01T01:21:13;-2.00;99.90
47540;DHT22;33280;52.152;21.052;2023-03-01T01:23:41;-1.90;99.90
47540;DHT22;33280;52.152;21.052;2023-03-01T01:26:14;-1.90;99.90
47540;DHT22;33280;52.152;21.052;2023-03-01T01:28:41;-2.10;99.90
47540;DHT22;33280;52.152;21.052;2023-03-01T01:31:08;-2.10;99.90
47540;DHT22;33280;52.152;21.052;2023-03-01T01:33:36;-2.00;99.90
47540;DHT22;33280;52.152;21.052;2023-03-01T01:36:05;-2.00;99.90
47540;DHT22;33280;52.152;21.052;2023-03-01T01:38:33;-2.00;99.90
47540;DHT22;33280;52.152;21.052;2023-03-01T01:41:00;-2.10;99.90
47540;DHT22;33280;52.152;21.052;2023-03-01T01:43:32;-2.10;99.90
47540;DHT22;33280;52.152;21.052;2023-03-01T01:48:43;-2.10;99.90
47540;DHT22;33280;52.152;21.052;2023-03-01T01:51:18;-2.10;99.90
47540;DHT22;33280;52.152;21.052;2023-03-01T01:53:50;-2.20;99.90
47540;DHT22;33280;52.152;21.052;2023-03-01T01:56:18;-2.20;99.90
47540;DHT22;33280;52.152;21.052;2023-03-01T01:58:47;-2.20;99.90
47540;DHT22;33280;52.152;21.052;2023-03-01T02:01:14;-2.20;99.90
47540;DHT22;33280;52.152;21.052;2023-03-01T02:03:43;-2.20;99.90
47540;DHT22;33280;52.152;21.052;2023-03-01T02:06:22;-2.20;99.90
47540;DHT22;33280;52.152;21.052;2023-03-01T02:09:00;-2.20;99.90
47540;DHT22;33280;52.152;21.052;2023-03-01T02:11:31;-2.20;99.90
47540;DHT22;33280;52.152;21.052;2023-03-01T02:14:00;-2.10;99.90
47540;DHT22;33280;52.152;21.052;2023-03-01T02:16:27;-2.10;99.90
47540;DHT22;33280;52.152;21.052;2023-03-01T02:18:56;-2.20;99.90
47540;DHT22;33280;52.152;21.052;2023-03-01T02:26:56;-2.30;99.90
47540;DHT22;33280;52.152;21.052;2023-03-01T02:29:28;-2.20;99.90
47540;DHT22;33280;52.152;21.052;2023-03-01T02:31:58;-2.20;99.90
47540;DHT22;33280;52.152;21.052;2023-03-01T02:34:26;-2.20;99.90
47540;DHT22;33280;52.152;21.052;2023-03-01T02:37:09;-2.20;99.90
47540;DHT22;33280;52.152;21.052;2023-03-01T02:39:52;-2.30;99.90
47540;DHT22;33280;52.152;21.052;2023-03-01T02:42:26;-2.30;99.90
47540;DHT22;33280;52.152;21.052;2023-03-01T02:44:53;-2.30;99.90
47540;DHT22;33280;52.152;21.052;2023-03-01T02:47:20;-2.30;99.90
47540;DHT22;33280;52.152;21.052;2023-03-01T02:49:47;-2.30;99.90
47540;DHT22;33280;52.152;21.052;2023-03-01T02:55:04;-2.40;99.90
47540;DHT22;33280;52.152;21.052;2023-03-01T02:57:34;-2.40;99.90
47540;DHT22;33280;52.152;21.052;2023-03-01T03:00:07;-2.30;99.90
47540;DHT22;33280;52.152;21.052;2023-03-01T03:02:36;-2.30;99.90
47540;DHT22;33280;52.152;21.052;2023-03-01T03:05:12;-2.40;99.90
47540;DHT22;33280;52.152;21.052;2023-03-01T03:07:42;-2.30;99.90
47540;DHT22;33280;52.152;21.052;2023-03-01T03:10:20;-2.30;99.90
47540;DHT22;33280;52.152;21.052;2023-03-01T03:13:02;-2.40;99.90
47540;DHT22;33280;52.152;21.052;2023-03-01T03:15:30;-2.40;99.90
47540;DHT22;33280;52.152;21.052;2023-03-01T03:17:58;-2.40;99.90
47540;DHT22;33280;52.152;21.052;2023-03-01T03:20:27;-2.40;99.90
47540;DHT22;33280;52.152;21.052;2023-03-01T03:22:56;-2.30;99.90
47540;DHT22;33280;52.152;21.052;2023-03-01T03:25:24;-2.30;99.90
47540;DHT22;33280;52.152;21.052;2023-03-01T03:27:52;-2.40;99.90
47540;DHT22;33280;52.152;21.052;2023-03-01T03:30:28;-2.40;99.90
47540;DHT22;33280;52.152;21.052;2023-03-01T03:32:57;-2.40;99.90
47540;DHT22;33280;52.152;21.052;2023-03-01T03:35:29;-2.40;99.90
47540;DHT22;33280;52.152;21.052;2023-03-01T03:38:03;-2.40;99.90
47540;DHT22;33280;52.152;21.052;2023-03-01T03:40:37;-2.40;99.90
47540;DHT22;33280;52.152;21.052;2023-03-01T03:43:07;-2.40;99.90
47540;DHT22;33280;52.152;21.052;2023-03-01T03:45:35;-2.50;99.90
47540;DHT22;33280;52.152;21.052;2023-03-01T03:48:04;-2.50;99.90
47540;DHT22;33280;52.152;21.052;2023-03-01T03:50:33;-2.60;99.90
47540;DHT22;33280;52.152;21.052;2023-03-01T03:53:01;-2.60;99.90
47540;DHT22;33280;52.152;21.052;2023-03-01T03:55:28;-2.60;99.90
47540;DHT22;33280;52.152;21.052;2023-03-01T03:57:58;-2.50;99.90
47540;DHT22;33280;52.152;21.052;2023-03-01T04:00:28;-2.40;99.90
47540;DHT22;33280;52.152;21.052;2023-03-01T04:02:55;-2.30;99.90
47540;DHT22;33280;52.152;21.052;2023-03-01T04:05:23;-2.40;99.90
47540;DHT22;33280;52.152;21.052;2023-03-01T04:07:50;-2.40;99.90
47540;DHT22;33280;52.152;21.052;2023-03-01T04:10:59;-2.50;99.90
47540;DHT22;33280;52.152;21.052;2023-03-01T04:13:21;-2.50;99.90
47540;DHT22;33280;52.152;21.052;2023-03-01T04:15:53;-2.50;99.90
47540;DHT22;33280;52.152;21.052;2023-03-01T04:18:22;-2.50;99.90
47540;DHT22;33280;52.152;21.052;2023-03-01T04:20:56;-2.50;99.90
47540;DHT22;33280;52.152;21.052;2023-03-01T04:23:27;-2.40;99.90
47540;DHT22;33280;52.152;21.052;2023-03-01T04:25:58;-2.40;99.90
47540;DHT22;33280;52.152;21.052;2023-03-01T04:28:32;-2.40;99.90
47540;DHT22;33280;52.152;21.052;2023-03-01T04:31:08;-2.40;99.90
47540;DHT22;33280;52.152;21.052;2023-03-01T04:36:18;-2.40;99.90
47540;DHT22;33280;52.152;21.052;2023-03-01T04:38:47;-2.40;99.90
47540;DHT22;33280;52.152;21.052;2023-03-01T04:41:20;-2.40;99.90
47540;DHT22;33280;52.152;21.052;2023-03-01T04:43:47;-2.40;99.90
47540;DHT22;33280;52.152;21.052;2023-03-01T04:46:17;-2.40;99.90
47540;DHT22;33280;52.152;21.052;2023-03-01T04:48:45;-2.30;99.90
47540;DHT22;33280;52.152;21.052;2023-03-01T04:51:14;-2.40;99.90
47540;DHT22;33280;52.152;21.052;2023-03-01T04:53:41;-2.40;99.90
47540;DHT22;33280;52.152;21.052;2023-03-01T04:56:09;-2.50;99.90
47540;DHT22;33280;52.152;21.052;2023-03-01T04:58:36;-2.40;99.90
47540;DHT22;33280;52.152;21.052;2023-03-01T05:01:11;-2.40;99.90
47540;DHT22;33280;52.152;21.052;2023-03-01T05:03:46;-2.40;99.90
47540;DHT22;33280;52.152;21.052;2023-03-01T05:06:14;-2.40;99.90
47540;DHT22;33280;52.152;21.052;2023-03-01T05:08:42;-2.30;99.90
47540;DHT22;33280;52.152;21.052;2023-03-01T05:11:10;-2.40;99.90
47540;DHT22;33280;52.152;21.052;2023-03-01T05:13:38;-2.40;99.90
47540;DHT22;33280;52.152;21.052;2023-03-01T05:16:06;-2.40;99.90
47540;DHT22;33280;52.152;21.052;2023-03-01T05:18:33;-2.40;99.90
47540;DHT22;33280;52.152;21.052;2023-03-01T05:21:18;-2.40;99.90
47540;DHT22;33280;52.152;21.052;2023-03-01T05:23:45;-2.40;99.90
47540;DHT22;33280;52.152;21.052;2023-03-01T05:26:14;-2.30;99.90
47540;DHT22;33280;52.152;21.052;2023-03-01T05:28:54;-2.30;99.90
47540;DHT22;33280;52.152;21.052;2023-03-01T05:31:26;-2.30;99.90
47540;DHT22;33280;52.152;21.052;2023-03-01T05:33:53;-2.30;99.90
47540;DHT22;33280;52.152;21.052;2023-03-01T05:36:20;-2.20;99.90
47540;DHT22;33280;52.152;21.052;2023-03-01T05:38:46;-2.20;99.90
47540;DHT22;33280;52.152;21.052;2023-03-01T05:41:14;-2.20;99.90
47540;DHT22;33280;52.152;21.052;2023-03-01T05:43:41;-2.20;99.90
47540;DHT22;33280;52.152;21.052;2023-03-01T05:46:11;-2.10;99.90
47540;DHT22;33280;52.152;21.052;2023-03-01T05:48:40;-2.10;99.90
47540;DHT22;33280;52.152;21.052;2023-03-01T05:51:08;-2.00;99.90
47540;DHT22;33280;52.152;21.052;2023-03-01T05:53:34;-2.00;99.90
47540;DHT22;33280;52.152;21.052;2023-03-01T05:56:05;-2.00;99.90
47540;DHT22;33280;52.152;21.052;2023-03-01T05:58:32;-1.90;99.90
47540;DHT22;33280;52.152;21.052;2023-03-01T06:00:59;-2.10;99.90
47540;DHT22;33280;52.152;21.052;2023-03-01T06:03:26;-1.90;99.90
47540;DHT22;33280;52.152;21.052;2023-03-01T06:05:57;-1.90;99.90
47540;DHT22;33280;52.152;21.052;2023-03-01T06:08:24;-1.80;99.90
47540;DHT22;33280;52.152;21.052;2023-03-01T06:10:53;-1.80;99.90
47540;DHT22;33280;52.152;21.052;2023-03-01T06:13:20;-1.70;99.90
47540;DHT22;33280;52.152;21.052;2023-03-01T06:15:47;-1.70;99.90
47540;DHT22;33280;52.152;21.052;2023-03-01T06:18:14;-1.70;99.90
47540;DHT22;33280;52.152;21.052;2023-03-01T06:20:41;-1.70;99.90
47540;DHT22;33280;52.152;21.052;2023-03-01T06:23:08;-1.60;99.90
47540;DHT22;33280;52.152;21.052;2023-03-01T06:25:37;-1.60;99.90
47540;DHT22;33280;52.152;21.052;2023-03-01T06:28:03;-1.50;99.90
47540;DHT22;33280;52.152;21.052;2023-03-01T06:30:31;-1.50;99.90
47540;DHT22;33280;52.152;21.052;2023-03-01T06:32:58;-1.50;99.90
47540;DHT22;33280;52.152;21.052;2023-03-01T06:35:28;-1.50;99.90
47540;DHT22;33280;52.152;21.052;2023-03-01T06:37:57;-1.40;99.90
47540;DHT22;33280;52.152;21.052;2023-03-01T06:40:24;-1.40;99.90
47540;DHT22;33280;52.152;21.052;2023-03-01T06:42:52;-1.30;99.90
47540;DHT22;33280;52.152;21.052;2023-03-01T06:45:20;-1.30;99.90
47540;DHT22;33280;52.152;21.052;2023-03-01T06:47:47;-1.20;99.90
47540;DHT22;33280;52.152;21.052;2023-03-01T06:50:15;-1.20;99.90
47540;DHT22;33280;52.152;21.052;2023-03-01T06:52:43;-1.20;99.90
47540;DHT22;33280;52.152;21.052;2023-03-01T06:55:12;-1.20;99.90
47540;DHT22;33280;52.152;21.052;2023-03-01T06:57:39;-1.10;99.90
47540;DHT22;33280;52.152;21.052;2023-03-01T07:00:07;-1.00;99.90
47540;DHT22;33280;52.152;21.052;2023-03-01T07:02:34;-1.00;99.90
47540;DHT22;33280;52.152;21.052;2023-03-01T07:05:07;-1.00;99.90
47540;DHT22;33280;52.152;21.052;2023-03-01T07:07:35;-1.00;99.90
47540;DHT22;33280;52.152;21.052;2023-03-01T07:10:02;-0.90;99.90
47540;DHT22;33280;52.152;21.052;2023-03-01T07:12:29;-0.90;99.90
47540;DHT22;33280;52.152;21.052;2023-03-01T07:14:56;-0.80;99.90
47540;DHT22;33280;52.152;21.052;2023-03-01T07:17:22;-0.70;99.90
47540;DHT22;33280;52.152;21.052;2023-03-01T07:19:49;-0.70;99.90
47540;DHT22;33280;52.152;21.052;2023-03-01T07:22:16;-0.60;99.90
47540;DHT22;33280;52.152;21.052;2023-03-01T07:24:43;-0.50;99.90
47540;DHT22;33280;52.152;21.052;2023-03-01T07:27:11;-0.40;99.90
47540;DHT22;33280;52.152;21.052;2023-03-01T07:29:38;-0.30;99.90
47540;DHT22;33280;52.152;21.052;2023-03-01T07:32:06;-0.30;99.90
47540;DHT22;33280;52.152;21.052;2023-03-01T07:34:33;-0.20;99.90
47540;DHT22;33280;52.152;21.052;2023-03-01T07:36:59;-0.20;99.90
47540;DHT22;33280;52.152;21.052;2023-03-01T07:39:26;-0.30;99.90
47540;DHT22;33280;52.152;21.052;2023-03-01T07:41:53;-0.10;99.90
47540;DHT22;33280;52.152;21.052;2023-03-01T07:44:20;0.00;99.90
47540;DHT22;33280;52.152;21.052;2023-03-01T07:46:47;0.00;99.90
47540;DHT22;33280;52.152;21.052;2023-03-01T07:49:14;0.20;99.90
47540;DHT22;33280;52.152;21.052;2023-03-01T07:51:43;0.30;99.90
47540;DHT22;33280;52.152;21.052;2023-03-01T07:54:10;0.40;99.90
47540;DHT22;33280;52.152;21.052;2023-03-01T07:56:36;0.40;99.90
47540;DHT22;33280;52.152;21.052;2023-03-01T07:59:03;0.50;99.90
47540;DHT22;33280;52.152;21.052;2023-03-01T08:01:30;0.50;99.90
47540;DHT22;33280;52.152;21.052;2023-03-01T08:03:57;0.70;99.90
47540;DHT22;33280;52.152;21.052;2023-03-01T08:06:24;0.80;99.90
47540;DHT22;33280;52.152;21.052;2023-03-01T08:08:50;0.90;99.90
47540;DHT22;33280;52.152;21.052;2023-03-01T08:11:17;1.00;99.90
47540;DHT22;33280;52.152;21.052;2023-03-01T08:13:47;1.10;99.90
47540;DHT22;33280;52.152;21.052;2023-03-01T08:16:17;1.10;99.90
47540;DHT22;33280;52.152;21.052;2023-03-01T08:18:44;1.30;99.90
47540;DHT22;33280;52.152;21.052;2023-03-01T08:21:13;1.70;99.90
47540;DHT22;33280;52.152;21.052;2023-03-01T08:23:41;2.40;99.90
47540;DHT22;33280;52.152;21.052;2023-03-01T08:26:17;2.90;99.90
47540;DHT22;33280;52.152;21.052;2023-03-01T08:28:45;3.70;99.90
47540;DHT22;33280;52.152;21.052;2023-03-01T08:31:21;4.00;99.90
47540;DHT22;33280;52.152;21.052;2023-03-01T08:33:50;4.30;99.90
47540;DHT22;33280;52.152;21.052;2023-03-01T08:36:26;4.50;99.90
47540;DHT22;33280;52.152;21.052;2023-03-01T08:38:55;4.80;99.90
47540;DHT22;33280;52.152;21.052;2023-03-01T08:41:22;4.70;99.90
47540;DHT22;33280;52.152;21.052;2023-03-01T08:43:49;4.90;99.90
47540;DHT22;33280;52.152;21.052;2023-03-01T08:46:16;5.20;99.90
47540;DHT22;33280;52.152;21.052;2023-03-01T08:48:43;5.30;99.90
47540;DHT22;33280;52.152;21.052;2023-03-01T08:51:15;5.20;99.90
47540;DHT22;33280;52.152;21.052;2023-03-01T08:53:46;5.30;99.90
47540;DHT22;33280;52.152;21.052;2023-03-01T08:56:14;5.10;99.90
47540;DHT22;33280;52.152;21.052;2023-03-01T08:58:44;5.20;99.90
47540;DHT22;33280;52.152;21.052;2023-03-01T09:01:18;5.40;99.90
47540;DHT22;33280;52.152;21.052;2023-03-01T09:03:46;5.50;99.90
47540;DHT22;33280;52.152;21.052;2023-03-01T09:06:13;5.30;99.90
47540;DHT22;33280;52.152;21.052;2023-03-01T09:08:42;5.50;99.90
47540;DHT22;33280;52.152;21.052;2023-03-01T09:11:11;5.60;99.90
47540;DHT22;33280;52.152;21.052;2023-03-01T09:13:39;6.10;99.90
47540;DHT22;33280;52.152;21.052;2023-03-01T09:16:11;6.60;99.90
47540;DHT22;33280;52.152;21.052;2023-03-01T09:18:39;6.70;99.90
47540;DHT22;33280;52.152;21.052;2023-03-01T09:21:10;6.40;99.90
47540;DHT22;33280;52.152;21.052;2023-03-01T09:23:40;6.60;99.90
47540;DHT22;33280;52.152;21.052;2023-03-01T09:26:08;6.50;99.90
47540;DHT22;33280;52.152;21.052;2023-03-01T09:28:36;6.80;99.90
47540;DHT22;33280;52.152;21.052;2023-03-01T09:31:04;7.00;99.90
47540;DHT22;33280;52.152;21.052;2023-03-01T09:33:32;7.30;99.90
47540;DHT22;33280;52.152;21.052;2023-03-01T09:36:01;7.50;99.90
47540;DHT22;33280;52.152;21.052;2023-03-01T09:38:29;7.80;99.90
47540;DHT22;33280;52.152;21.052;2023-03-01T09:40:56;7.60;99.90
47540;DHT22;33280;52.152;21.052;2023-03-01T09:46:10;7.50;99.90
47540;DHT22;33280;52.152;21.052;2023-03-01T09:49:01;7.70;99.90
47540;DHT22;33280;52.152;21.052;2023-03-01T09:51:35;7.50;99.90
47540;DHT22;33280;52.152;21.052;2023-03-01T09:54:03;7.60;99.90
47540;DHT22;33280;52.152;21.052;2023-03-01T10:04:51;7.40;99.90
47540;DHT22;33280;52.152;21.052;2023-03-01T10:10:07;7.80;99.90
47540;DHT22;33280;52.152;21.052;2023-03-01T10:12:39;8.10;99.90
47540;DHT22;33280;52.152;21.052;2023-03-01T10:15:09;8.50;99.90
47540;DHT22;33280;52.152;21.052;2023-03-01T10:17:52;9.10;99.90
47540;DHT22;33280;52.152;21.052;2023-03-01T10:20:25;9.20;99.90
47540;DHT22;33280;52.152;21.052;2023-03-01T10:22:53;9.00;99.90
47540;DHT22;33280;52.152;21.052;2023-03-01T10:30:58;8.90;99.90
47540;DHT22;33280;52.152;21.052;2023-03-01T10:33:33;9.00;99.90
47540;DHT22;33280;52.152;21.052;2023-03-01T10:36:02;9.20;99.90
47540;DHT22;33280;52.152;21.052;2023-03-01T10:38:33;9.80;99.90
47540;DHT22;33280;52.152;21.052;2023-03-01T10:41:13;10.30;99.90
47540;DHT22;33280;52.152;21.052;2023-03-01T10:43:57;10.80;99.90
47540;DHT22;33280;52.152;21.052;2023-03-01T10:46:30;10.90;99.90
47540;DHT22;33280;52.152;21.052;2023-03-01T10:49:21;11.30;99.90
47540;DHT22;33280;52.152;21.052;2023-03-01T10:51:50;11.50;99.90
47540;DHT22;33280;52.152;21.052;2023-03-01T10:54:27;11.20;99.90
47540;DHT22;33280;52.152;21.052;2023-03-01T10:57:01;11.50;99.90
47540;DHT22;33280;52.152;21.052;2023-03-01T11:05:18;11.90;98.90
47540;DHT22;33280;52.152;21.052;2023-03-01T11:07:58;12.20;98.10
47540;DHT22;33280;52.152;21.052;2023-03-01T11:10:29;12.40;97.80
47540;DHT22;33280;52.152;21.052;2023-03-01T11:13:29;12.80;95.90
47540;DHT22;33280;52.152;21.052;2023-03-01T11:16:14;12.90;95.40
47540;DHT22;33280;52.152;21.052;2023-03-01T11:18:41;12.70;94.30
47540;DHT22;33280;52.152;21.052;2023-03-01T11:21:15;13.00;93.80
47540;DHT22;33280;52.152;21.052;2023-03-01T11:23:43;13.10;93.40
47540;DHT22;33280;52.152;21.052;2023-03-01T11:26:13;12.60;94.40
47540;DHT22;33280;52.152;21.052;2023-03-01T11:28:42;13.20;93.30
47540;DHT22;33280;52.152;21.052;2023-03-01T11:31:15;12.60;93.10
47540;DHT22;33280;52.152;21.052;2023-03-01T11:33:50;12.70;94.80
47540;DHT22;33280;52.152;21.052;2023-03-01T11:42:02;14.00;90.00
47540;DHT22;33280;52.152;21.052;2023-03-01T11:44:48;13.70;91.30
47540;DHT22;33280;52.152;21.052;2023-03-01T11:52:46;14.80;86.70
47540;DHT22;33280;52.152;21.052;2023-03-01T12:06:44;16.20;76.90
47540;DHT22;33280;52.152;21.052;2023-03-01T12:14:35;18.30;68.70
47540;DHT22;33280;52.152;21.052;2023-03-01T12:17:50;17.40;66.70
47540;DHT22;33280;52.152;21.052;2023-03-01T12:20:26;18.10;68.60
47540;DHT22;33280;52.152;21.052;2023-03-01T12:23:16;19.00;64.30
47540;DHT22;33280;52.152;21.052;2023-03-01T12:26:07;19.10;63.60
47540;DHT22;33280;52.152;21.052;2023-03-01T12:35:28;18.80;63.00
47540;DHT22;33280;52.152;21.052;2023-03-01T12:40:50;20.20;59.30
47540;DHT22;33280;52.152;21.052;2023-03-01T12:43:41;20.20;58.40
47540;DHT22;33280;52.152;21.052;2023-03-01T12:46:15;19.80;59.00
47540;DHT22;33280;52.152;21.052;2023-03-01T12:48:50;19.20;59.20
47540;DHT22;33280;52.152;21.052;2023-03-01T12:51:28;19.50;59.60
47540;DHT22;33280;52.152;21.052;2023-03-01T12:53:59;19.50;58.80
47540;DHT22;33280;52.152;21.052;2023-03-01T12:56:30;19.40;59.20
47540;DHT22;33280;52.152;21.052;2023-03-01T13:17:51;18.70;60.60
47540;DHT22;33280;52.152;21.052;2023-03-01T13:20:21;18.70;60.90
47540;DHT22;33280;52.152;21.052;2023-03-01T13:23:00;18.70;60.10
47540;DHT22;33280;52.152;21.052;2023-03-01T13:25:27;18.00;61.20
47540;DHT22;33280;52.152;21.052;2023-03-01T13:33:59;17.00;64.30
47540;DHT22;33280;52.152;21.052;2023-03-01T13:39:01;16.00;68.60
47540;DHT22;33280;52.152;21.052;2023-03-01T13:44:29;15.90;71.00
47540;DHT22;33280;52.152;21.052;2023-03-01T13:55:29;14.50;76.20
47540;DHT22;33280;52.152;21.052;2023-03-01T13:57:57;13.90;81.30
47540;DHT22;33280;52.152;21.052;2023-03-01T14:03:18;13.60;84.90
47540;DHT22;33280;52.152;21.052;2023-03-01T14:06:02;13.20;87.50
47540;DHT22;33280;52.152;21.052;2023-03-01T14:08:42;12.80;91.10
47540;DHT22;33280;52.152;21.052;2023-03-01T14:19:26;12.80;92.70
47540;DHT22;33280;52.152;21.052;2023-03-01T14:22:17;12.30;94.10
47540;DHT22;33280;52.152;21.052;2023-03-01T14:24:52;12.10;96.80
47540;DHT22;33280;52.152;21.052;2023-03-01T14:27:21;11.80;97.10
47540;DHT22;33280;52.152;21.052;2023-03-01T14:29:59;11.70;98.90
47540;DHT22;33280;52.152;21.052;2023-03-01T14:32:31;11.40;99.90
47540;DHT22;33280;52.152;21.052;2023-03-01T14:35:00;11.50;99.90
47540;DHT22;33280;52.152;21.052;2023-03-01T14:37:30;11.70;99.90
47540;DHT22;33280;52.152;21.052;2023-03-01T14:39:59;11.60;99.90
47540;DHT22;33280;52.152;21.052;2023-03-01T14:42:30;11.40;99.90
47540;DHT22;33280;52.152;21.052;2023-03-01T14:45:01;11.60;99.90
47540;DHT22;33280;52.152;21.052;2023-03-01T14:47:32;11.60;99.90
47540;DHT22;33280;52.152;21.052;2023-03-01T14:50:33;11.50;99.90
47540;DHT22;33280;52.152;21.052;2023-03-01T14:53:05;11.20;99.90
47540;DHT22;33280;52.152;21.052;2023-03-01T14:55:42;11.20;99.90
47540;DHT22;33280;52.152;21.052;2023-03-01T14:58:17;11.10;99.90
47540;DHT22;33280;52.152;21.052;2023-03-01T15:01:00;11.00;99.90
47540;DHT22;33280;52.152;21.052;2023-03-01T15:06:00;10.20;99.90
47540;DHT22;33280;52.152;21.052;2023-03-01T15:08:28;9.80;99.90
47540;DHT22;33280;52.152;21.052;2023-03-01T15:11:21;9.50;99.90
47540;DHT22;33280;52.152;21.052;2023-03-01T15:13:49;9.30;99.90
47540;DHT22;33280;52.152;21.052;2023-03-01T15:16:22;8.70;99.90
47540;DHT22;33280;52.152;21.052;2023-03-01T15:18:54;8.60;99.90
47540;DHT22;33280;52.152;21.052;2023-03-01T15:21:30;8.40;99.90
47540;DHT22;33280;52.152;21.052;2023-03-01T15:24:01;8.10;99.90
47540;DHT22;33280;52.152;21.052;2023-03-01T15:26:32;7.80;99.90
47540;DHT22;33280;52.152;21.052;2023-03-01T15:29:01;7.60;99.90
47540;DHT22;33280;52.152;21.052;2023-03-01T15:31:34;7.60;99.90
47540;DHT22;33280;52.152;21.052;2023-03-01T15:34:32;7.50;99.90
47540;DHT22;33280;52.152;21.052;2023-03-01T15:37:02;7.30;99.90
47540;DHT22;33280;52.152;21.052;2023-03-01T15:39:43;7.20;99.90
47540;DHT22;33280;52.152;21.052;2023-03-01T15:47:48;7.00;99.90
47540;DHT22;33280;52.152;21.052;2023-03-01T15:50:28;6.90;99.90
47540;DHT22;33280;52.152;21.052;2023-03-01T15:52:57;6.70;99.90
47540;DHT22;33280;52.152;21.052;2023-03-01T15:55:27;6.70;99.90
47540;DHT22;33280;52.152;21.052;2023-03-01T15:58:09;6.60;99.90
47540;DHT22;33280;52.152;21.052;2023-03-01T16:00:37;6.70;99.90
47540;DHT22;33280;52.152;21.052;2023-03-01T16:03:11;6.70;99.90
47540;DHT22;33280;52.152;21.052;2023-03-01T16:05:38;6.70;99.90
47540;DHT22;33280;52.152;21.052;2023-03-01T16:08:06;6.60;99.90
47540;DHT22;33280;52.152;21.052;2023-03-01T16:10:33;6.60;99.90
47540;DHT22;33280;52.152;21.052;2023-03-01T16:13:00;6.50;99.90
47540;DHT22;33280;52.152;21.052;2023-03-01T16:15:32;6.50;99.90
47540;DHT22;33280;52.152;21.052;2023-03-01T16:18:01;6.40;99.90
47540;DHT22;33280;52.152;21.052;2023-03-01T16:20:29;6.30;99.90
47540;DHT22;33280;52.152;21.052;2023-03-01T16:23:00;6.30;99.90
47540;DHT22;33280;52.152;21.052;2023-03-01T16:25:28;6.10;99.90
47540;DHT22;33280;52.152;21.052;2023-03-01T16:27:55;6.00;99.90
47540;DHT22;33280;52.152;21.052;2023-03-01T16:30:25;6.00;99.90
47540;DHT22;33280;52.152;21.052;2023-03-01T16:32:52;6.00;99.90
47540;DHT22;33280;52.152;21.052;2023-03-01T16:35:21;6.00;99.90
47540;DHT22;33280;52.152;21.052;2023-03-01T16:37:48;6.00;99.90
47540;DHT22;33280;52.152;21.052;2023-03-01T16:42:45;5.90;99.90
47540;DHT22;33280;52.152;21.052;2023-03-01T16:45:13;5.90;99.90
47540;DHT22;33280;52.152;21.052;2023-03-01T16:47:50;5.90;99.90
47540;DHT22;33280;52.152;21.052;2023-03-01T16:50:21;5.80;99.90
47540;DHT22;33280;52.152;21.052;2023-03-01T16:52:48;5.70;99.90
47540;DHT22;33280;52.152;21.052;2023-03-01T16:55:15;5.70;99.90
47540;DHT22;33280;52.152;21.052;2023-03-01T16:57:42;5.60;99.90
47540;DHT22;33280;52.152;21.052;2023-03-01T17:00:11;5.50;99.90
47540;DHT22;33280;52.152;21.052;2023-03-01T17:02:40;5.50;99.90
47540;DHT22;33280;52.152;21.052;2023-03-01T17:05:08;5.40;99.90
47540;DHT22;33280;52.152;21.052;2023-03-01T17:07:36;5.40;99.90
47540;DHT22;33280;52.152;21.052;2023-03-01T17:10:05;5.40;99.90
47540;DHT22;33280;52.152;21.052;2023-03-01T17:12:34;5.30;99.90
47540;DHT22;33280;52.152;21.052;2023-03-01T17:15:02;5.20;99.90
47540;DHT22;33280;52.152;21.052;2023-03-01T17:17:30;5.00;99.90
47540;DHT22;33280;52.152;21.052;2023-03-01T17:19:57;5.00;99.90
47540;DHT22;33280;52.152;21.052;2023-03-01T17:22:25;4.90;99.90
47540;DHT22;33280;52.152;21.052;2023-03-01T17:24:52;5.00;99.90
47540;DHT22;33280;52.152;21.052;2023-03-01T17:27:19;4.90;99.90
47540;DHT22;33280;52.152;21.052;2023-03-01T17:29:46;4.90;99.90
47540;DHT22;33280;52.152;21.052;2023-03-01T17:32:14;4.80;99.90
47540;DHT22;33280;52.152;21.052;2023-03-01T17:34:44;4.80;99.90
47540;DHT22;33280;52.152;21.052;2023-03-01T17:37:19;4.80;99.90
47540;DHT22;33280;52.152;21.052;2023-03-01T17:42:53;4.80;99.90
47540;DHT22;33280;52.152;21.052;2023-03-01T17:45:23;4.80;99.90
47540;DHT22;33280;52.152;21.052;2023-03-01T17:47:50;4.70;99.90
47540;DHT22;33280;52.152;21.052;2023-03-01T17:50:17;4.70;99.90
47540;DHT22;33280;52.152;21.052;2023-03-01T17:52:44;4.70;99.90
47540;DHT22;33280;52.152;21.052;2023-03-01T17:55:14;4.60;99.90
47540;DHT22;33280;52.152;21.052;2023-03-01T17:57:41;4.60;99.90
47540;DHT22;33280;52.152;21.052;2023-03-01T18:00:13;4.50;99.90
47540;DHT22;33280;52.152;21.052;2023-03-01T18:02:41;4.50;99.90